Time;durP1;ratioP1;P1;durP2;ratioP2;P2;SDS_P1;SDS_P2;PMS_P1;PMS_P2;Temp;Humidity;BMP_temperature;BMP_pressure;BME280_temperature;BME280_humidity;BME280_pressure;Samples;Min_cycle;Max_cycle;Signal;HPM_P1;HPM_P2
2023/02/19 00:01:34;;;;;;;24.67;6.87;;;10.30;99.90;;;;;;5060038;28;20244;-81
2023/02/19 00:04:03;;;;;;;15.10;7.13;;;10.30;99.90;;;;;;5072309;28;20198;-82
2023/02/19 00:06:31;;;;;;;25.33;8.43;;;10.30;99.90;;;;;;5068617;28;20320;-82
2023/02/19 00:09:00;;;;;;;25.37;8.90;;;10.20;99.90;;;;;;5052273;28;20201;-83
2023/02/19 00:11:30;;;;;;;28.27;8.33;;;10.20;99.90;;;;;;5053149;28;20306;-84
2023/02/19 00:13:58;;;;;;;20.57;9.10;;;10.20;99.90;;;;;;5054712;28;20336;-79
2023/02/19 00:16:26;;;;;;;21.43;8.90;;;10.20;99.90;;;;;;5060383;28;20367;-83
2023/02/19 00:18:54;;;;;;;23.10;8.97;;;10.10;99.90;;;;;;5076527;28;20308;-83
2023/02/19 00:21:21;;;;;;;25.60;10.67;;;10.20;99.90;;;;;;5076048;28;20288;-84
2023/02/19 00:23:51;;;;;;;23.53;9.53;;;10.20;99.90;;;;;;5075781;28;20514;-85
2023/02/19 00:26:20;;;;;;;28.13;11.20;;;10.10;99.90;;;;;;5061412;28;20236;-81
2023/02/19 00:28:48;;;;;;;26.57;11.00;;;10.10;99.90;;;;;;5056090;28;20274;-81
2023/02/19 00:31:18;;;;;;;24.13;10.67;;;10.10;99.90;;;;;;5074664;28;20287;-83
2023/02/19 00:33:45;;;;;;;20.67;10.97;;;10.10;99.90;;;;;;5076025;28;20223;-84
2023/02/19 00:36:12;;;;;;;24.17;11.40;;;10.10;99.90;;;;;;5067613;28;20294;-84
2023/02/19 00:38:40;;;;;;;21.87;11.13;;;10.10;99.90;;;;;;5056197;28;20257;-84
2023/02/19 00:41:18;;;;;;;26.30;10.97;;;10.10;99.90;;;;;;5056582;28;20639;-84
2023/02/19 00:43:49;;;;;;;20.43;9.83;;;10.10;99.90;;;;;;5063243;28;20228;-84
2023/02/19 00:46:16;;;;;;;23.70;9.83;;;10.10;99.90;;;;;;5075734;28;20284;-86
2023/02/19 00:48:43;;;;;;;19.40;9.70;;;10.10;99.90;;;;;;5069749;28;20198;-83
2023/02/19 00:51:10;;;;;;;23.40;10.10;;;10.00;99.90;;;;;;5056278;28;20229;-84
2023/02/19 00:53:37;;;;;;;28.20;10.43;;;10.00;99.90;;;;;;5055960;28;20392;-85
2023/02/19 00:56:05;;;;;;;23.40;9.67;;;10.00;99.90;;;;;;5056313;28;20284;-86
2023/02/19 00:58:32;;;;;;;24.87;11.23;;;10.00;99.90;;;;;;5056389;28;20224;-85
2023/02/19 01:01:01;;;;;;;27.13;11.30;;;10.00;99.90;;;;;;5056170;28;20614;-86
2023/02/19 01:03:28;;;;;;;20.40;10.23;;;10.00;99.90;;;;;;5056596;28;20190;-86
2023/02/19 01:05:55;;;;;;;25.50;10.63;;;10.00;99.90;;;;;;5055438;28;20214;-85
2023/02/19 01:08:22;;;;;;;22.97;10.10;;;10.00;99.90;;;;;;5056060;28;20263;-84
2023/02/19 01:10:48;;;;;;;21.23;10.80;;;10.00;99.90;;;;;;5055836;28;20202;-86
2023/02/19 01:13:15;;;;;;;25.67;11.20;;;10.00;99.90;;;;;;5056187;28;20220;-86
2023/02/19 01:15:42;;;;;;;22.37;10.57;;;10.00;99.90;;;;;;5056562;28;20285;-82
2023/02/19 01:18:11;;;;;;;19.90;10.27;;;10.10;99.90;;;;;;5054936;28;20228;-80
2023/02/19 01:20:40;;;;;;;23.43;10.50;;;10.10;99.90;;;;;;5056010;28;20221;-82
2023/02/19 01:23:07;;;;;;;21.00;10.87;;;10.10;99.90;;;;;;5055870;28;20214;-84
2023/02/19 01:25:33;;;;;;;23.67;11.43;;;10.00;99.90;;;;;;5054709;28;20248;-86
2023/02/19 01:28:00;;;;;;;24.47;11.70;;;10.00;99.90;;;;;;5055404;28;20228;-86
2023/02/19 01:30:27;;;;;;;22.90;10.57;;;10.10;99.90;;;;;;5055286;28;20557;-87
2023/02/19 01:32:54;;;;;;;28.87;12.70;;;10.00;99.90;;;;;;5055646;28;20233;-86
2023/02/19 01:35:22;;;;;;;23.70;12.20;;;10.00;99.90;;;;;;5055474;28;20693;-85
2023/02/19 01:37:49;;;;;;;18.73;10.90;;;10.10;99.90;;;;;;5074836;28;20524;-85
2023/02/19 01:40:17;;;;;;;21.43;11.27;;;10.00;99.90;;;;;;5074277;28;20280;-80
2023/02/19 01:42:44;;;;;;;20.00;10.50;;;10.00;99.90;;;;;;5073733;28;20240;-83
2023/02/19 01:45:21;;;;;;;18.23;9.53;;;10.00;99.90;;;;;;5065569;28;20216;-80
2023/02/19 01:47:55;;;;;;;23.10;10.00;;;10.00;99.90;;;;;;5053487;28;20190;-80
2023/02/19 01:50:24;;;;;;;22.13;9.07;;;10.00;99.90;;;;;;5053557;28;20186;-83
2023/02/19 01:52:51;;;;;;;16.83;9.23;;;10.00;99.90;;;;;;5052955;28;20201;-79
2023/02/19 01:55:19;;;;;;;21.60;8.87;;;9.90;99.90;;;;;;5053265;28;20873;-82
2023/02/19 01:57:51;;;;;;;23.03;8.30;;;9.90;99.90;;;;;;5052805;28;20287;-80
2023/02/19 02:00:18;;;;;;;25.10;9.50;;;9.90;99.90;;;;;;5052188;28;20284;-81
2023/02/19 02:02:51;;;;;;;23.87;7.90;;;9.90;99.90;;;;;;5052448;28;20620;-78
2023/02/19 02:05:29;;;;;;;21.37;7.43;;;9.90;99.90;;;;;;5053059;28;20281;-82
2023/02/19 02:10:42;;;;;;;18.87;7.00;;;9.90;99.90;;;;;;5072630;28;20200;-83
2023/02/19 02:13:09;;;;;;;15.73;6.93;;;9.90;99.90;;;;;;5072994;28;20185;-79
2023/02/19 02:15:44;;;;;;;17.90;6.30;;;9.90;99.90;;;;;;5072155;28;20288;-77
2023/02/19 02:18:20;;;;;;;16.87;5.40;;;9.90;99.90;;;;;;5060124;28;20205;-78
2023/02/19 02:21:04;;;;;;;18.73;5.67;;;9.90;99.90;;;;;;5052189;28;20282;-80
2023/02/19 02:23:45;;;;;;;16.67;5.77;;;9.90;99.90;;;;;;5052698;28;20606;-79
2023/02/19 02:26:29;;;;;;;13.77;5.10;;;9.80;99.90;;;;;;5051923;28;20592;-78
2023/02/19 02:29:25;;;;;;;17.90;5.90;;;9.80;99.90;;;;;;5051792;28;20293;-78
2023/02/19 02:31:58;;;;;;;15.67;4.80;;;9.80;99.90;;;;;;5023593;28;20241;-78
2023/02/19 02:34:30;;;;;;;16.27;5.00;;;9.80;99.90;;;;;;5052022;28;20297;-77
2023/02/19 02:36:58;;;;;;;16.37;5.43;;;9.80;99.90;;;;;;5050774;28;20217;-77
2023/02/19 02:39:27;;;;;;;18.33;6.13;;;9.80;99.90;;;;;;5052202;28;20708;-78
2023/02/19 02:45:33;;;;;;;15.23;4.50;;;9.80;99.90;;;;;;5051942;28;20271;-78
2023/02/19 02:47:43;;;;;;;19.67;5.57;;;9.80;99.90;;;;;;5051781;28;20202;-77
2023/02/19 02:50:13;;;;;;;14.27;5.40;;;9.80;99.90;;;;;;5051275;28;20205;-80
2023/02/19 02:55:31;;;;;;;22.50;6.37;;;9.80;99.90;;;;;;5052178;28;20475;-79
2023/02/19 02:57:58;;;;;;;15.97;5.03;;;9.80;99.90;;;;;;5051107;28;20235;-80
2023/02/19 03:02:09;;;;;;;15.50;5.30;;;9.80;99.90;;;;;;5052113;28;20256;-78
2023/02/19 03:03:19;;;;;;;18.67;6.43;;;9.80;99.90;;;;;;5051150;28;20193;-78
2023/02/19 03:05:52;;;;;;;22.00;6.20;;;9.80;99.90;;;;;;5052067;28;20778;-78
2023/02/19 03:08:25;;;;;;;15.53;5.70;;;9.80;99.90;;;;;;5051482;28;20293;-79
2023/02/19 03:10:57;;;;;;;14.90;4.77;;;9.80;99.90;;;;;;5051825;28;20656;-78
2023/02/19 03:19:19;;;;;;;18.40;4.90;;;9.80;99.90;;;;;;5051586;28;20248;-80
2023/02/19 03:21:50;;;;;;;17.50;5.07;;;9.80;99.90;;;;;;5057856;28;20236;-79
2023/02/19 03:27:06;;;;;;;19.97;6.20;;;9.80;99.90;;;;;;5071607;28;20185;-79
2023/02/19 03:29:35;;;;;;;12.03;5.00;;;9.80;99.90;;;;;;5065809;28;20281;-77
2023/02/19 03:32:06;;;;;;;16.33;5.03;;;9.80;99.90;;;;;;5050811;28;20547;-83
2023/02/19 03:34:38;;;;;;;21.90;5.50;;;9.80;99.90;;;;;;5051756;28;20237;-79
2023/02/19 03:37:10;;;;;;;13.97;4.33;;;9.80;99.90;;;;;;5051490;28;20225;-77
2023/02/19 03:39:43;;;;;;;22.23;5.17;;;9.80;99.90;;;;;;5050612;28;20253;-79
2023/02/19 03:42:18;;;;;;;18.77;5.20;;;9.80;99.90;;;;;;5051159;28;20198;-80
2023/02/19 03:44:53;;;;;;;17.57;5.20;;;9.80;99.90;;;;;;5052191;28;20277;-86
2023/02/19 03:47:23;;;;;;;16.63;4.93;;;9.80;99.90;;;;;;5053273;28;20214;-86
2023/02/19 03:49:58;;;;;;;18.47;5.23;;;9.80;99.90;;;;;;5059113;28;20217;-85
2023/02/19 03:52:32;;;;;;;17.73;5.33;;;9.80;99.90;;;;;;5057242;28;20205;-85
2023/02/19 03:55:06;;;;;;;21.50;5.93;;;9.80;99.90;;;;;;5057358;28;20301;-84
2023/02/19 03:57:45;;;;;;;16.27;5.40;;;9.80;99.90;;;;;;5057363;28;20259;-85
2023/02/19 04:00:17;;;;;;;18.10;4.90;;;9.80;99.90;;;;;;5072964;28;20280;-82
2023/02/19 04:02:50;;;;;;;19.17;5.37;;;9.80;99.90;;;;;;5076990;28;20276;-83
2023/02/19 04:05:22;;;;;;;18.00;5.63;;;9.80;99.90;;;;;;5077213;28;20273;-82
2023/02/19 04:07:52;;;;;;;20.33;5.70;;;9.80;99.90;;;;;;5056788;28;20586;-84
2023/02/19 04:10:20;;;;;;;21.90;5.37;;;9.80;99.90;;;;;;5066775;28;20201;-82
2023/02/19 04:12:53;;;;;;;13.90;5.27;;;9.70;99.90;;;;;;5072561;28;20291;-81
2023/02/19 04:15:24;;;;;;;20.67;4.63;;;9.70;99.90;;;;;;5055611;28;20241;-81
2023/02/19 04:17:55;;;;;;;17.90;5.40;;;9.70;99.90;;;;;;5055156;28;20289;-81
2023/02/19 04:20:27;;;;;;;21.33;5.43;;;9.70;99.90;;;;;;5055000;28;20217;-85
2023/02/19 04:22:54;;;;;;;19.40;4.80;;;9.60;99.90;;;;;;5054782;28;20288;-83
2023/02/19 04:25:23;;;;;;;20.30;5.37;;;9.60;99.90;;;;;;5055675;28;20337;-86
2023/02/19 04:27:50;;;;;;;16.53;4.70;;;9.60;99.90;;;;;;5056005;28;20289;-86
2023/02/19 04:30:17;;;;;;;23.13;5.13;;;9.60;99.90;;;;;;5057465;28;20213;-82
2023/02/19 04:32:44;;;;;;;20.90;5.57;;;9.60;99.90;;;;;;5076437;28;20197;-86
2023/02/19 04:35:11;;;;;;;20.67;5.27;;;9.60;99.90;;;;;;5075280;28;20277;-83
2023/02/19 04:37:40;;;;;;;21.67;5.40;;;9.60;99.90;;;;;;5064546;28;20241;-81
2023/02/19 04:40:08;;;;;;;22.63;5.80;;;9.60;99.90;;;;;;5055907;28;20633;-81
2023/02/19 04:42:34;;;;;;;21.87;5.07;;;9.50;99.90;;;;;;5055306;28;20854;-83
2023/02/19 04:45:01;;;;;;;26.90;6.87;;;9.60;99.90;;;;;;5055873;28;20194;-82
2023/02/19 04:47:28;;;;;;;20.87;5.53;;;9.60;99.90;;;;;;5054726;28;20198;-77
2023/02/19 04:49:55;;;;;;;19.60;5.33;;;9.50;99.90;;;;;;5054694;28;20194;-84
2023/02/19 04:52:22;;;;;;;20.83;5.83;;;9.50;99.90;;;;;;5058683;28;20228;-84
2023/02/19 04:54:50;;;;;;;18.60;6.57;;;9.50;99.90;;;;;;5075422;28;20224;-83
2023/02/19 04:57:17;;;;;;;20.27;6.33;;;9.50;99.90;;;;;;5074783;28;20236;-85
2023/02/19 04:59:44;;;;;;;15.63;5.50;;;9.50;99.90;;;;;;5074749;28;20217;-85
2023/02/19 05:02:11;;;;;;;19.47;6.13;;;9.50;99.90;;;;;;5074633;28;20205;-81
2023/02/19 05:04:38;;;;;;;22.77;5.90;;;9.40;99.90;;;;;;5074683;28;20220;-84
2023/02/19 05:07:05;;;;;;;22.27;6.00;;;9.50;99.90;;;;;;5075045;28;20711;-81
2023/02/19 05:09:31;;;;;;;14.30;5.47;;;9.40;99.90;;;;;;5074790;28;20220;-88
2023/02/19 05:12:00;;;;;;;20.40;4.93;;;9.50;99.90;;;;;;5064446;28;20216;-86
2023/02/19 05:14:27;;;;;;;22.77;6.70;;;9.50;99.90;;;;;;5054416;28;20285;-81
2023/02/19 05:16:53;;;;;;;22.70;6.63;;;9.40;99.90;;;;;;5053428;28;20289;-83
2023/02/19 05:19:20;;;;;;;19.00;5.80;;;9.40;99.90;;;;;;5054125;28;20765;-87
2023/02/19 05:21:47;;;;;;;19.90;5.83;;;9.40;99.90;;;;;;5054129;28;20517;-87
2023/02/19 05:24:14;;;;;;;21.27;5.87;;;9.40;99.90;;;;;;5054894;28;20290;-86
2023/02/19 05:26:41;;;;;;;18.63;6.30;;;9.40;99.90;;;;;;5055489;28;20281;-83
2023/02/19 05:29:09;;;;;;;22.53;6.17;;;9.40;99.90;;;;;;5055334;28;20293;-87
2023/02/19 05:31:36;;;;;;;18.13;6.17;;;9.40;99.90;;;;;;5070074;28;20291;-79
2023/02/19 05:34:03;;;;;;;28.43;7.43;;;9.40;99.90;;;;;;5075212;28;20198;-87
2023/02/19 05:36:30;;;;;;;19.97;5.97;;;9.40;99.90;;;;;;5074801;28;20198;-79
2023/02/19 05:38:57;;;;;;;21.57;5.93;;;9.40;99.90;;;;;;5056920;28;20233;-86
2023/02/19 05:41:25;;;;;;;23.87;7.43;;;9.40;99.90;;;;;;5054946;28;20234;-87
2023/02/19 05:43:53;;;;;;;26.27;6.57;;;9.40;99.90;;;;;;5055323;28;20204;-86
2023/02/19 05:46:23;;;;;;;22.57;5.40;;;9.40;99.90;;;;;;5056191;28;20200;-85
2023/02/19 05:48:50;;;;;;;20.23;5.17;;;9.40;99.90;;;;;;5074991;28;20199;-87
2023/02/19 05:51:20;;;;;;;22.93;4.77;;;9.40;99.90;;;;;;5074860;28;20592;-86
2023/02/19 05:53:48;;;;;;;20.57;4.60;;;9.40;99.90;;;;;;5066835;28;20198;-85
2023/02/19 05:56:30;;;;;;;21.53;5.07;;;9.40;99.90;;;;;;5054696;28;20241;-82
2023/02/19 05:58:57;;;;;;;19.90;4.30;;;9.40;99.90;;;;;;5054344;28;20269;-79
2023/02/19 06:01:27;;;;;;;25.43;5.20;;;9.40;99.90;;;;;;5054220;28;20233;-86
2023/02/19 06:03:54;;;;;;;15.53;4.97;;;9.40;99.90;;;;;;5054479;28;20192;-84
2023/02/19 06:06:21;;;;;;;26.10;4.47;;;9.40;99.90;;;;;;5053736;28;20224;-87
2023/02/19 06:08:49;;;;;;;24.03;6.27;;;9.40;99.90;;;;;;5054220;28;20281;-81
2023/02/19 06:11:17;;;;;;;29.37;5.73;;;9.40;99.90;;;;;;5052907;28;20205;-84
2023/02/19 06:13:44;;;;;;;19.17;5.10;;;9.40;99.90;;;;;;5053913;28;20196;-86
2023/02/19 06:16:12;;;;;;;19.27;4.80;;;9.40;99.90;;;;;;5065512;28;20291;-83
2023/02/19 06:18:40;;;;;;;24.57;5.13;;;9.40;99.90;;;;;;5073902;28;20228;-86
2023/02/19 06:21:09;;;;;;;19.53;4.90;;;9.40;99.90;;;;;;5073899;28;20217;-84
2023/02/19 06:23:36;;;;;;;22.33;5.53;;;9.40;99.90;;;;;;5074010;28;20201;-84
2023/02/19 06:26:12;;;;;;;26.33;5.13;;;9.40;99.90;;;;;;5072997;28;20241;-86
2023/02/19 06:28:40;;;;;;;24.10;5.60;;;9.40;99.90;;;;;;5074600;28;20287;-87
2023/02/19 06:31:08;;;;;;;19.53;4.53;;;9.40;99.90;;;;;;5075746;28;20284;-81
2023/02/19 06:33:37;;;;;;;23.30;5.23;;;9.30;99.90;;;;;;5066439;28;20233;-86
2023/02/19 06:36:07;;;;;;;27.53;5.93;;;9.30;99.90;;;;;;5054152;28;20190;-86
2023/02/19 06:38:34;;;;;;;21.43;5.67;;;9.30;99.90;;;;;;5053954;28;20222;-87
2023/02/19 06:41:02;;;;;;;21.73;6.63;;;9.40;99.90;;;;;;5053873;28;20328;-80
2023/02/19 06:43:29;;;;;;;21.43;4.47;;;9.40;99.90;;;;;;5053681;28;20228;-89
2023/02/19 06:45:58;;;;;;;18.10;5.53;;;9.30;99.90;;;;;;5053998;28;20201;-85
2023/02/19 06:48:26;;;;;;;17.90;5.77;;;9.30;99.90;;;;;;5053279;28;20197;-87
2023/02/19 06:50:53;;;;;;;25.17;6.10;;;9.40;99.90;;;;;;5054185;28;20198;-88
2023/02/19 06:53:23;;;;;;;22.63;6.33;;;9.40;99.90;;;;;;5052953;28;20221;-84
2023/02/19 06:55:56;;;;;;;23.40;7.70;;;9.40;99.90;;;;;;5054125;28;20206;-87
2023/02/19 06:58:23;;;;;;;17.53;6.27;;;9.40;99.90;;;;;;5054286;28;20569;-88
2023/02/19 07:00:50;;;;;;;26.07;6.40;;;9.30;99.90;;;;;;5054309;28;20574;-88
2023/02/19 07:03:17;;;;;;;24.50;6.50;;;9.30;99.90;;;;;;5053376;28;20194;-86
2023/02/19 07:05:44;;;;;;;30.53;6.93;;;9.30;99.90;;;;;;5062004;28;20225;-82
2023/02/19 07:08:10;;;;;;;21.60;6.17;;;9.30;99.90;;;;;;5069245;28;20205;-82
2023/02/19 07:10:39;;;;;;;18.27;5.73;;;9.30;99.90;;;;;;5053069;28;20196;-88
2023/02/19 07:13:06;;;;;;;29.13;5.77;;;9.30;99.90;;;;;;5053755;28;20285;-83
2023/02/19 07:15:33;;;;;;;20.67;5.40;;;9.30;99.90;;;;;;5053013;28;20296;-83
2023/02/19 07:17:59;;;;;;;18.23;5.57;;;9.30;99.90;;;;;;5053432;28;20248;-85
2023/02/19 07:20:26;;;;;;;24.47;8.03;;;9.20;99.90;;;;;;5053402;28;20276;-86
2023/02/19 07:22:53;;;;;;;19.57;5.20;;;9.20;99.90;;;;;;5054553;28;20230;-85
2023/02/19 07:25:20;;;;;;;29.53;5.77;;;9.20;99.90;;;;;;5056152;28;20610;-82
2023/02/19 07:27:48;;;;;;;20.60;6.40;;;9.20;99.90;;;;;;5056893;28;20505;-79
2023/02/19 07:30:16;;;;;;;25.67;6.10;;;9.30;99.90;;;;;;5056861;28;20594;-79
2023/02/19 07:32:44;;;;;;;33.47;7.23;;;9.20;99.90;;;;;;5055693;28;20206;-81
2023/02/19 07:35:11;;;;;;;29.67;6.07;;;9.30;99.90;;;;;;5057221;28;20221;-81
2023/02/19 07:37:38;;;;;;;26.27;6.57;;;9.20;99.90;;;;;;5075393;28;20225;-84
2023/02/19 07:40:06;;;;;;;27.23;6.70;;;9.20;99.90;;;;;;5068584;28;20214;-82
2023/02/19 07:42:33;;;;;;;23.63;7.17;;;9.30;99.90;;;;;;5054927;28;20858;-82
2023/02/19 07:45:01;;;;;;;25.77;6.13;;;9.20;99.90;;;;;;5054938;28;20305;-81
2023/02/19 07:47:29;;;;;;;23.17;6.73;;;9.20;99.90;;;;;;5056006;28;20288;-83
2023/02/19 07:49:56;;;;;;;24.33;6.37;;;9.20;99.90;;;;;;5056202;28;20293;-81
2023/02/19 07:52:22;;;;;;;27.70;7.17;;;9.20;99.90;;;;;;5054884;28;20200;-79
2023/02/19 07:54:49;;;;;;;25.67;6.73;;;9.20;99.90;;;;;;5055260;28;20289;-84
2023/02/19 07:57:16;;;;;;;20.53;6.30;;;9.20;99.90;;;;;;5055364;28;20224;-84
2023/02/19 07:59:43;;;;;;;28.97;7.90;;;9.20;99.90;;;;;;5053093;28;20289;-80
2023/02/19 08:05:01;;;;;;;24.70;7.30;;;9.30;99.90;;;;;;5056001;28;20274;-82
2023/02/19 08:07:32;;;;;;;19.17;6.57;;;9.20;99.90;;;;;;5055114;28;20198;-79
2023/02/19 08:13:29;;;;;;;18.27;6.80;;;9.20;99.90;;;;;;4939875;28;20612;-78
2023/02/19 08:16:09;;;;;;;17.37;6.37;;;9.20;99.90;;;;;;5080850;28;20207;-81
2023/02/19 08:18:38;;;;;;;16.03;6.37;;;9.30;99.90;;;;;;5081003;28;20220;-78
2023/02/19 08:21:05;;;;;;;24.00;7.27;;;9.30;99.90;;;;;;5081428;28;20713;-81
2023/02/19 08:23:32;;;;;;;13.47;5.33;;;9.30;99.90;;;;;;5076318;28;20233;-78
2023/02/19 08:26:00;;;;;;;21.13;7.07;;;9.40;99.90;;;;;;5087617;28;20228;-80
2023/02/19 08:28:34;;;;;;;15.83;4.97;;;9.40;99.90;;;;;;5080273;28;20494;-80
2023/02/19 08:31:02;;;;;;;15.00;5.50;;;9.40;99.90;;;;;;5076188;28;20531;-85
2023/02/19 08:33:30;;;;;;;18.00;7.20;;;9.40;99.90;;;;;;5061170;28;20330;-85
2023/02/19 08:36:03;;;;;;;15.90;6.73;;;9.40;99.90;;;;;;5056127;28;20198;-84
2023/02/19 08:38:30;;;;;;;12.23;5.30;;;9.30;99.90;;;;;;5056544;28;20236;-86
2023/02/19 08:40:57;;;;;;;9.83;5.20;;;9.20;99.90;;;;;;5056534;28;20210;-85
2023/02/19 08:43:24;;;;;;;7.17;5.07;;;9.10;99.90;;;;;;5056805;28;20221;-85
2023/02/19 08:45:53;;;;;;;7.43;4.50;;;9.10;99.90;;;;;;5056687;28;20244;-85
2023/02/19 08:48:20;;;;;;;9.13;4.57;;;9.10;99.90;;;;;;5055998;28;20634;-84
2023/02/19 08:50:54;;;;;;;8.30;4.30;;;9.10;99.90;;;;;;5056235;28;20197;-84
2023/02/19 08:53:22;;;;;;;14.57;6.17;;;9.20;99.90;;;;;;5056253;28;20218;-82
2023/02/19 08:55:49;;;;;;;7.43;5.10;;;9.10;99.90;;;;;;5055864;28;20191;-86
2023/02/19 08:58:16;;;;;;;11.23;4.30;;;9.20;99.90;;;;;;5055963;28;20237;-85
2023/02/19 09:00:43;;;;;;;9.30;4.30;;;9.20;99.90;;;;;;5056477;28;20222;-85
2023/02/19 09:03:10;;;;;;;5.63;3.37;;;9.20;99.90;;;;;;5055887;28;20204;-85
2023/02/19 09:05:38;;;;;;;7.57;3.40;;;9.20;99.90;;;;;;5055864;28;20206;-85
2023/02/19 09:08:05;;;;;;;4.43;2.93;;;9.20;99.90;;;;;;5055446;28;20193;-87
2023/02/19 09:10:33;;;;;;;6.33;3.07;;;9.10;99.90;;;;;;5055534;28;20281;-85
2023/02/19 09:13:01;;;;;;;3.80;2.70;;;9.10;99.90;;;;;;5055448;28;20285;-85
2023/02/19 09:15:28;;;;;;;3.70;2.00;;;9.20;99.90;;;;;;5055490;28;20205;-84
2023/02/19 09:17:55;;;;;;;2.70;1.77;;;9.10;99.90;;;;;;5055355;28;20190;-86
2023/02/19 09:20:22;;;;;;;4.70;2.63;;;9.10;99.90;;;;;;5054782;28;20305;-78
2023/02/19 09:22:49;;;;;;;4.30;2.40;;;9.10;99.90;;;;;;5055192;28;20603;-83
2023/02/19 09:25:16;;;;;;;3.20;1.73;;;9.10;99.90;;;;;;5062723;28;20279;-85
2023/02/19 09:27:44;;;;;;;4.33;3.50;;;9.10;99.90;;;;;;5075038;28;20233;-85
2023/02/19 09:30:11;;;;;;;2.47;2.13;;;9.10;99.90;;;;;;5074985;28;20197;-83
2023/02/19 09:32:38;;;;;;;2.37;2.17;;;9.10;99.90;;;;;;5063658;28;20295;-78
2023/02/19 09:35:06;;;;;;;1.73;1.60;;;9.20;99.90;;;;;;5053899;28;20202;-77
2023/02/19 09:37:33;;;;;;;2.63;2.00;;;9.10;99.90;;;;;;5052485;28;20272;-78
2023/02/19 09:39:59;;;;;;;5.70;3.33;;;9.20;99.90;;;;;;5059209;28;20589;-84
2023/02/19 09:42:29;;;;;;;4.20;2.20;;;9.20;99.90;;;;;;5073599;28;20300;-85
2023/02/19 09:45:00;;;;;;;3.53;2.67;;;9.10;99.90;;;;;;5069844;28;20211;-80
2023/02/19 09:47:29;;;;;;;3.27;1.90;;;9.20;99.90;;;;;;5064262;28;20657;-83
2023/02/19 09:49:59;;;;;;;3.57;1.90;;;9.20;99.90;;;;;;5063250;28;20617;-86
2023/02/19 09:52:32;;;;;;;1.40;1.27;;;9.20;99.90;;;;;;5087329;28;20197;-81
2023/02/19 09:55:02;;;;;;;1.70;1.60;;;9.30;99.90;;;;;;5070832;28;20212;-78
2023/02/19 09:57:32;;;;;;;1.30;1.20;;;9.20;99.90;;;;;;5052187;28;20236;-78
2023/02/19 10:00:05;;;;;;;1.70;1.43;;;9.30;99.90;;;;;;5055204;28;20198;-85
2023/02/19 10:02:32;;;;;;;2.20;1.50;;;9.30;99.90;;;;;;5055161;28;20210;-84
2023/02/19 10:05:00;;;;;;;1.43;1.33;;;9.30;99.90;;;;;;5055106;28;20202;-87
2023/02/19 10:07:37;;;;;;;3.00;2.47;;;9.30;99.90;;;;;;5055292;28;20205;-86
2023/02/19 10:10:22;;;;;;;4.77;2.67;;;9.30;99.90;;;;;;5055397;28;20281;-85
2023/02/19 10:12:52;;;;;;;3.40;2.77;;;9.30;99.90;;;;;;5072592;28;20197;-85
2023/02/19 10:15:26;;;;;;;2.60;2.33;;;9.30;99.90;;;;;;5074786;28;20219;-85
2023/02/19 10:17:53;;;;;;;2.73;2.30;;;9.30;99.90;;;;;;5074902;28;20214;-86
2023/02/19 10:20:26;;;;;;;2.53;2.33;;;9.20;99.90;;;;;;5061550;28;20296;-83
2023/02/19 10:22:59;;;;;;;3.57;2.30;;;9.30;99.90;;;;;;5054514;28;20291;-85
2023/02/19 10:25:26;;;;;;;2.90;2.47;;;9.30;99.90;;;;;;5053957;28;20238;-88
2023/02/19 10:27:53;;;;;;;2.37;2.17;;;9.30;99.90;;;;;;5054783;28;20209;-85
2023/02/19 10:30:24;;;;;;;3.33;1.80;;;9.30;99.90;;;;;;5054710;28;20504;-88
2023/02/19 10:33:04;;;;;;;2.43;2.00;;;9.30;99.90;;;;;;5068270;28;20213;-84
2023/02/19 10:35:34;;;;;;;1.67;1.50;;;9.20;99.90;;;;;;5074605;28;20201;-87
2023/02/19 10:38:04;;;;;;;2.60;2.37;;;9.20;99.90;;;;;;5074756;28;20221;-87
2023/02/19 10:40:32;;;;;;;2.90;1.60;;;9.30;99.90;;;;;;5074202;28;20223;-86
2023/02/19 10:43:02;;;;;;;2.70;2.37;;;9.30;99.90;;;;;;5059857;28;20237;-84
2023/02/19 10:45:34;;;;;;;3.30;2.40;;;9.30;99.90;;;;;;5054793;28;20198;-89
2023/02/19 10:48:02;;;;;;;3.53;2.90;;;9.30;99.90;;;;;;5063291;28;20200;-88
2023/02/19 10:50:32;;;;;;;4.20;3.10;;;9.30;99.90;;;;;;5073966;28;20613;-87
2023/02/19 10:53:00;;;;;;;4.13;3.40;;;9.20;99.90;;;;;;5073975;28;20185;-88
2023/02/19 10:55:33;;;;;;;3.63;2.93;;;9.10;99.90;;;;;;5073621;28;20706;-83
2023/02/19 10:58:23;;;;;;;4.40;2.90;;;9.00;99.90;;;;;;5073611;28;20284;-87
2023/02/19 11:01:10;;;;;;;3.93;2.73;;;8.90;99.90;;;;;;5074638;28;20242;-87
2023/02/19 11:03:37;;;;;;;6.17;3.23;;;8.80;99.90;;;;;;5074024;28;20194;-85
2023/02/19 11:06:08;;;;;;;4.77;2.90;;;8.80;99.90;;;;;;5060767;28;20210;-80
2023/02/19 11:08:51;;;;;;;2.83;2.03;;;8.80;99.90;;;;;;5052750;28;20202;-83
2023/02/19 11:11:28;;;;;;;4.40;2.30;;;8.80;99.90;;;;;;5068360;28;20201;-80
2023/02/19 11:13:57;;;;;;;5.03;2.27;;;8.80;99.90;;;;;;5071737;28;20684;-84
2023/02/19 11:16:45;;;;;;;2.90;2.10;;;8.70;99.90;;;;;;5066212;28;20201;-81
2023/02/19 11:19:36;;;;;;;4.47;3.30;;;8.70;99.90;;;;;;5053141;28;20217;-86
2023/02/19 11:22:18;;;;;;;4.83;3.27;;;8.60;99.90;;;;;;5051610;28;20206;-83
2023/02/19 11:24:48;;;;;;;3.17;2.50;;;8.50;99.90;;;;;;5051747;28;20244;-85
2023/02/19 11:27:19;;;;;;;2.67;2.13;;;8.50;99.90;;;;;;5052414;28;20198;-84
2023/02/19 11:29:46;;;;;;;7.47;4.70;;;8.40;99.90;;;;;;5051752;28;20699;-86
2023/02/19 11:32:29;;;;;;;4.07;2.73;;;8.40;99.90;;;;;;5053453;28;20206;-83
2023/02/19 11:35:21;;;;;;;3.60;3.30;;;8.40;99.90;;;;;;5052354;28;20194;-83
2023/02/19 11:37:57;;;;;;;2.33;1.70;;;8.40;99.90;;;;;;5035058;28;20226;-81
2023/02/19 11:40:35;;;;;;;2.00;1.33;;;8.40;99.90;;;;;;5071667;28;20207;-78
2023/02/19 11:43:14;;;;;;;1.40;1.30;;;8.50;99.90;;;;;;5063428;28;20238;-79
2023/02/19 11:45:48;;;;;;;1.57;1.20;;;8.50;99.90;;;;;;5050848;28;20205;-78
2023/02/19 11:48:39;;;;;;;1.37;1.20;;;8.50;99.90;;;;;;5051097;28;20395;-77
2023/02/19 11:51:21;;;;;;;1.77;1.40;;;8.50;99.90;;;;;;5050265;28;20584;-77
2023/02/19 11:53:52;;;;;;;2.40;0.97;;;8.50;99.90;;;;;;5051272;28;20189;-77
2023/02/19 11:56:22;;;;;;;3.03;1.60;;;8.60;99.90;;;;;;5051399;28;20198;-77
2023/02/19 11:58:58;;;;;;;2.23;1.20;;;8.60;99.90;;;;;;5056067;28;20204;-76
2023/02/19 12:01:35;;;;;;;3.30;1.50;;;8.60;99.90;;;;;;5071308;28;20222;-77
2023/02/19 12:04:40;;;;;;;2.30;1.03;;;8.70;99.90;;;;;;5056028;28;20207;-77
2023/02/19 12:07:19;;;;;;;1.47;0.70;;;8.70;99.90;;;;;;5051551;28;20699;-80
2023/02/19 12:10:00;;;;;;;2.23;0.80;;;8.70;99.90;;;;;;5052762;28;20202;-77
2023/02/19 12:12:46;;;;;;;4.50;1.00;;;8.70;99.90;;;;;;5054742;28;20205;-77
2023/02/19 12:15:44;;;;;;;2.73;0.90;;;8.70;99.90;;;;;;5063456;28;20209;-77
2023/02/19 12:18:31;;;;;;;3.37;1.00;;;8.70;99.90;;;;;;5074676;28;20316;-77
2023/02/19 12:21:13;;;;;;;1.23;0.77;;;8.70;99.90;;;;;;5067272;28;20681;-77
2023/02/19 12:23:58;;;;;;;2.17;0.90;;;8.80;99.90;;;;;;5054431;28;20209;-77
2023/02/19 12:26:29;;;;;;;1.63;0.90;;;8.80;99.90;;;;;;5053781;28;20209;-77
2023/02/19 12:29:31;;;;;;;3.20;0.93;;;8.90;99.90;;;;;;5054141;28;20200;-77
2023/02/19 12:32:13;;;;;;;2.23;0.80;;;9.00;99.90;;;;;;5050811;28;20204;-76
2023/02/19 12:34:59;;;;;;;3.23;0.97;;;9.10;99.90;;;;;;5053996;28;20247;-77
2023/02/19 12:37:38;;;;;;;2.57;1.00;;;9.20;99.90;;;;;;5054603;28;20242;-77
2023/02/19 12:40:20;;;;;;;0.87;0.80;;;9.20;99.90;;;;;;5053803;28;20206;-76
2023/02/19 12:42:57;;;;;;;5.10;0.90;;;9.30;99.90;;;;;;5054140;28;20218;-77
2023/02/19 12:45:30;;;;;;;4.63;1.10;;;9.40;99.90;;;;;;5054038;28;20689;-78
2023/02/19 12:48:01;;;;;;;1.10;0.67;;;9.50;99.90;;;;;;5054100;28;20225;-77
2023/02/19 12:50:30;;;;;;;3.30;0.90;;;9.60;99.90;;;;;;5054357;28;20206;-75
2023/02/19 12:53:06;;;;;;;1.77;0.70;;;9.80;99.90;;;;;;5054078;28;20204;-78
2023/02/19 12:55:36;;;;;;;1.57;0.70;;;9.90;99.90;;;;;;5054317;28;20251;-79
2023/02/19 12:58:05;;;;;;;2.50;1.60;;;9.90;99.90;;;;;;5037013;28;20261;-78
2023/02/19 13:00:39;;;;;;;6.90;4.27;;;9.90;99.90;;;;;;5054164;28;20208;-77
2023/02/19 13:03:15;;;;;;;4.13;2.77;;;10.00;99.90;;;;;;5053126;28;20217;-80
2023/02/19 13:05:47;;;;;;;2.57;1.70;;;10.00;99.90;;;;;;5057030;28;20246;-86
2023/02/19 13:08:22;;;;;;;3.53;1.13;;;10.00;99.90;;;;;;5075943;28;20185;-85
2023/02/19 13:10:54;;;;;;;4.17;1.37;;;10.00;99.90;;;;;;5075967;28;20220;-85
2023/02/19 13:13:26;;;;;;;2.27;1.20;;;10.00;99.90;;;;;;5072962;28;20284;-87
2023/02/19 13:16:00;;;;;;;4.80;1.83;;;10.00;99.90;;;;;;5069430;28;20190;-87
2023/02/19 13:18:31;;;;;;;3.50;0.87;;;9.90;99.90;;;;;;5074040;28;20207;-86
2023/02/19 13:20:59;;;;;;;2.10;0.80;;;9.90;99.90;;;;;;5075378;28;20273;-86
2023/02/19 13:26:32;;;;;;;1.13;0.70;;;9.90;99.90;;;;;;5055795;28;20197;-84
2023/02/19 13:29:14;;;;;;;2.97;1.10;;;9.90;99.90;;;;;;5055018;28;20712;-89
2023/02/19 13:31:57;;;;;;;2.10;1.03;;;9.90;99.90;;;;;;5053782;28;20509;-78
2023/02/19 13:34:42;;;;;;;1.13;0.70;;;9.90;99.90;;;;;;5058087;28;20224;-80